Robijn — PBEJ — position and weather

sailwx.info

Track history (hours):
 
Tides and Currents Weather Stations Pressure Air Temp Water Temp Dewpoint Dewpoint Depression Visibility Wind Speed Wind Dir Waves Ship Positions

Robijn

Last reported at 2017-Apr-26 02:47 UTC. Time now 2017-Apr-26 04:09 UTC.
Position N 56°14' E 012°25'.

Length 90 m; draft 5.4 m.

Type: Cargo ship. MMSI: 245909000.

Date/timePositionNaut miles runAvg speedWind from/ knotsBaromVisibWave heightAir tempDewpointWater temp
2017-Apr-26 02:47N 56°14' E 012°25'310.2
2017-Apr-26 02:30N 56°11' E 012°28'510.2
2017-Apr-26 02:01N 56°07' E 012°33'510.1
2017-Apr-26 01:31N 56°03' E 012°39'510.3
2017-Apr-26 01:00N 55°58' E 012°42'510.3
2017-Apr-26 00:31N 55°53' E 012°44'510.6
2017-Apr-26 00:01N 55°48' E 012°43'510.6
2017-Apr-25 23:31N 55°43' E 012°41'510.3
2017-Apr-25 23:00N 55°38' E 012°42'5 9.9
2017-Apr-25 22:31N 55°33' E 012°43'510.2
2017-Apr-25 22:00N 55°28' E 012°42'510.7
2017-Apr-25 21:31N 55°22' E 012°42'5 9.0
2017-Apr-25 21:00N 55°18' E 012°44'510.0
2017-Apr-25 20:30N 55°16' E 012°52'510.1
2017-Apr-25 20:00N 55°14' E 013°00'510.4
2017-Apr-25 19:29N 55°12' E 013°09'1410.5
2017-Apr-25 18:09N 55°06' E 013°31'210.2
2017-Apr-25 17:55N 55°06' E 013°35'510.6
2017-Apr-25 17:30N 55°03' E 013°42'610.6
2017-Apr-25 16:54N 55°01' E 013°52'410.5
2017-Apr-25 16:29N 54°59' E 013°59'510.5
2017-Apr-25 16:00N 54°58' E 014°08'510.4
2017-Apr-25 15:29N 54°56' E 014°17'510.3
2017-Apr-25 15:00N 54°55' E 014°25'510.5
2017-Apr-25 14:30N 54°54' E 014°34'1010.5
2017-Apr-25 13:30N 54°53' E 014°52'510.5
2017-Apr-25 13:00N 54°54' E 015°01'510.5
2017-Apr-25 12:30N 54°55' E 015°10'610.6
2017-Apr-25 11:59N 54°57' E 015°19'610.6
2017-Apr-25 11:24N 54°58' E 015°30'610.5
2017-Apr-25 10:50N 54°59' E 015°40'310.4
2017-Apr-25 10:30N 55°00' E 015°46'71 9.3
2017-Apr-25 02:52N 54°58' E 017°50'410.4
2017-Apr-25 02:31N 54°58' E 017°56'510.4
2017-Apr-25 02:01N 54°59' E 018°05'510.4
2017-Apr-25 01:30N 54°59' E 018°14'510.2
2017-Apr-25 01:00N 55°00' E 018°23'510.2
2017-Apr-25 00:30N 54°59' E 018°32'510.1
2017-Apr-25 00:00N 54°58' E 018°40'510.3
2017-Apr-24 23:30N 54°56' E 018°49'510.5
2017-Apr-24 23:01N 54°54' E 018°58'510.6
2017-Apr-24 22:31N 54°53' E 019°06'510.6
2017-Apr-24 22:00N 54°50' E 019°15'510.5
2017-Apr-24 21:30N 54°48' E 019°23'510.7
2017-Apr-24 21:00N 54°46' E 019°32'510.8
2017-Apr-24 20:31N 54°44' E 019°40'610.9
2017-Apr-24 20:00N 54°41' E 019°48'6 0.1
2017-Apr-23 03:14N 54°38' E 019°56'2 7.3
2017-Apr-23 03:00N 54°38' E 019°53'3 6.9
2017-Apr-23 02:31N 54°40' E 019°48'3 6.8
2017-Apr-23 02:00N 54°41' E 019°43'3 6.7
2017-Apr-23 01:31N 54°42' E 019°37'3 5.9
2017-Apr-23 01:00N 54°41' E 019°41'3 5.3
2017-Apr-23 00:30N 54°42' E 019°38'1 1.9
2017-Apr-23 00:00N 54°42' E 019°39'2 3.3
2017-Apr-22 23:31N 54°41' E 019°41'4 7.0
2017-Apr-22 23:00N 54°43' E 019°36'0 0.5
2017-Apr-22 22:29N 54°43' E 019°36'3 5.8
2017-Apr-22 21:59N 54°41' E 019°40'2 3.8
2017-Apr-22 21:26N 54°40' E 019°44'3 6.9
2017-Apr-22 21:00N 54°42' E 019°39'3 6.8
2017-Apr-22 20:31N 54°44' E 019°34'2 4.0
2017-Apr-22 20:00N 54°43' E 019°37'2 4.5
2017-Apr-22 19:30N 54°41' E 019°40'0 1.0
2017-Apr-22 19:00N 54°41' E 019°40'3 6.9
2017-Apr-22 18:31N 54°43' E 019°35'1 1.1
2017-Apr-22 18:00N 54°43' E 019°35'2 4.5
2017-Apr-22 17:30N 54°42' E 019°39'2 4.9
2017-Apr-22 17:00N 54°41' E 019°42'1 1.7
2017-Apr-22 16:31N 54°41' E 019°41'1 1.4
2017-Apr-22 16:00N 54°41' E 019°42'2 4.5
2017-Apr-22 15:31N 54°42' E 019°39'1 1.2
2017-Apr-22 15:01N 54°43' E 019°38'2 4.7
2017-Apr-22 14:30N 54°41' E 019°42'5 4.6
2017-Apr-22 13:20N 54°39' E 019°50'0 1.3
2017-Apr-22 13:01N 54°39' E 019°50'0 0.2
2017-Apr-22 12:30N 54°39' E 019°50'0 0.2
2017-Apr-22 12:00N 54°39' E 019°50'0 0.1
2017-Apr-22 11:30N 54°39' E 019°50'0 0.0
2017-Apr-22 11:00N 54°39' E 019°50'0 0.0
2017-Apr-22 10:27N 54°39' E 019°50'0 0.1
2017-Apr-22 09:58N 54°39' E 019°50'0 0.1
2017-Apr-22 09:30N 54°39' E 019°50'0 0.1
2017-Apr-22 09:01N 54°39' E 019°50'0 0.1
2017-Apr-22 08:27N 54°39' E 019°50'0 0.5
2017-Apr-22 08:00N 54°39' E 019°49'2 3.1
2017-Apr-22 07:30N 54°40' E 019°47'510.9
2017-Apr-22 07:00N 54°43' E 019°39'510.7
2017-Apr-22 06:30N 54°45' E 019°31'510.7
2017-Apr-22 06:01N 54°48' E 019°23'510.7
2017-Apr-22 05:31N 54°50' E 019°14'510.9
2017-Apr-22 05:01N 54°52' E 019°06'611.1
2017-Apr-22 04:31N 54°55' E 018°57'611.1
2017-Apr-22 04:01N 54°57' E 018°49'510.9
2017-Apr-22 03:30N 54°60' E 018°40'510.8
2017-Apr-22 03:01N 55°02' E 018°32'510.7
2017-Apr-22 02:30N 55°04' E 018°23'611.1
2017-Apr-22 01:56N 55°06' E 018°13'133 3.7
2017-Apr-20 13:59N 55°58' E 014°36'4 7.3
2017-Apr-20 13:29N 55°55' E 014°37'610.8
2017-Apr-20 12:58N 55°49' E 014°37'510.8
2017-Apr-20 12:29N 55°44' E 014°37'510.7
2017-Apr-20 12:00N 55°39' E 014°37'510.7
2017-Apr-20 11:30N 55°33' E 014°39'611.0
2017-Apr-20 11:00N 55°28' E 014°39'510.5
2017-Apr-20 10:30N 55°23' E 014°36'611.1
2017-Apr-20 10:00N 55°18' E 014°30'511.2
2017-Apr-20 09:30N 55°14' E 014°24'611.0
2017-Apr-20 09:00N 55°11' E 014°16'611.2
2017-Apr-20 08:27N 55°11' E 014°06'511.0
2017-Apr-20 07:59N 55°11' E 013°57'510.7
2017-Apr-20 07:30N 55°11' E 013°48'1610.8
2017-Apr-20 05:59N 55°13' E 013°19'510.7
2017-Apr-20 05:30N 55°14' E 013°10'510.9
2017-Apr-20 05:00N 55°14' E 013°01'510.6
2017-Apr-20 04:30N 55°15' E 012°52'510.8
2017-Apr-20 04:00N 55°17' E 012°43'4 8.9
2017-Apr-20 03:30N 55°21' E 012°39'510.8
2017-Apr-20 03:00N 55°26' E 012°41'510.7
2017-Apr-20 02:30N 55°32' E 012°42'510.1
2017-Apr-20 02:01N 55°37' E 012°42'5 9.7
2017-Apr-20 01:30N 55°41' E 012°41'510.0
2017-Apr-20 01:01N 55°46' E 012°42'5 9.9
2017-Apr-20 00:30N 55°51' E 012°41'510.0
2017-Apr-20 00:01N 55°56' E 012°39'510.1
2017-Apr-19 23:31N 56°01' E 012°40'4 8.7
2017-Apr-19 23:01N 56°05' E 012°35'4 8.4
2017-Apr-19 22:31N 56°08' E 012°30'510.1
2017-Apr-19 22:01N 56°11' E 012°22'  
2017-Apr-17 04:29N 56°59' E 011°43'6 9.7
2017-Apr-17 03:53N 57°05' E 011°39'4 9.7
2017-Apr-17 03:29N 57°09' E 011°37'5 9.8
2017-Apr-17 03:00N 57°13' E 011°34'5 9.9
2017-Apr-17 02:30N 57°18' E 011°31'5 9.6
2017-Apr-17 02:00N 57°22' E 011°28'5 9.1
2017-Apr-17 01:30N 57°26' E 011°24'5 9.3
2017-Apr-17 01:00N 57°30' E 011°19'5 9.9
2017-Apr-17 00:30N 57°33' E 011°12'5 9.7
2017-Apr-17 00:00N 57°37' E 011°06'510.1
2017-Apr-16 23:29N 57°40' E 010°59'510.3
2017-Apr-16 23:00N 57°44' E 010°52'510.4
2017-Apr-16 22:30N 57°47' E 010°44'611.5
2017-Apr-16 22:00N 57°46' E 010°33'611.6
2017-Apr-16 21:28N 57°45' E 010°22'14010.6
2017-Apr-16 08:18N 56°08' E 007°17'310.4
2017-Apr-16 07:59N 56°06' E 007°14'510.4
2017-Apr-16 07:29N 56°01' E 007°10'  
Track history (hours):
 
Tides and Currents Weather Stations Pressure Air Temp Water Temp Dewpoint Dewpoint Depression Visibility Wind Speed Wind Dir Waves Ship Positions

Robijn

Last reported at 2017-Apr-26 02:47 UTC. Time now 2017-Apr-26 04:09 UTC.
Position N 56°14' E 012°25'.

Length 90 m; draft 5.4 m.

Type: Cargo ship. MMSI: 245909000.

Date/timePositionNaut miles runAvg speedWind from/ knotsBaromVisibWave heightAir tempDewpointWater temp
2017-Apr-26 02:47N 56°14' E 012°25'310.2
2017-Apr-26 02:30N 56°11' E 012°28'510.2
2017-Apr-26 02:01N 56°07' E 012°33'510.1
2017-Apr-26 01:31N 56°03' E 012°39'510.3
2017-Apr-26 01:00N 55°58' E 012°42'510.3
2017-Apr-26 00:31N 55°53' E 012°44'510.6
2017-Apr-26 00:01N 55°48' E 012°43'510.6
2017-Apr-25 23:31N 55°43' E 012°41'510.3
2017-Apr-25 23:00N 55°38' E 012°42'5 9.9
2017-Apr-25 22:31N 55°33' E 012°43'510.2
2017-Apr-25 22:00N 55°28' E 012°42'510.7
2017-Apr-25 21:31N 55°22' E 012°42'5 9.0
2017-Apr-25 21:00N 55°18' E 012°44'510.0
2017-Apr-25 20:30N 55°16' E 012°52'510.1
2017-Apr-25 20:00N 55°14' E 013°00'510.4
2017-Apr-25 19:29N 55°12' E 013°09'1410.5
2017-Apr-25 18:09N 55°06' E 013°31'210.2
2017-Apr-25 17:55N 55°06' E 013°35'510.6
2017-Apr-25 17:30N 55°03' E 013°42'610.6
2017-Apr-25 16:54N 55°01' E 013°52'410.5
2017-Apr-25 16:29N 54°59' E 013°59'510.5
2017-Apr-25 16:00N 54°58' E 014°08'510.4
2017-Apr-25 15:29N 54°56' E 014°17'510.3
2017-Apr-25 15:00N 54°55' E 014°25'510.5
2017-Apr-25 14:30N 54°54' E 014°34'1010.5
2017-Apr-25 13:30N 54°53' E 014°52'510.5
2017-Apr-25 13:00N 54°54' E 015°01'510.5
2017-Apr-25 12:30N 54°55' E 015°10'610.6
2017-Apr-25 11:59N 54°57' E 015°19'610.6
2017-Apr-25 11:24N 54°58' E 015°30'610.5
2017-Apr-25 10:50N 54°59' E 015°40'310.4
2017-Apr-25 10:30N 55°00' E 015°46'71 9.3
2017-Apr-25 02:52N 54°58' E 017°50'410.4
2017-Apr-25 02:31N 54°58' E 017°56'510.4
2017-Apr-25 02:01N 54°59' E 018°05'510.4
2017-Apr-25 01:30N 54°59' E 018°14'510.2
2017-Apr-25 01:00N 55°00' E 018°23'510.2
2017-Apr-25 00:30N 54°59' E 018°32'510.1
2017-Apr-25 00:00N 54°58' E 018°40'510.3
2017-Apr-24 23:30N 54°56' E 018°49'510.5
2017-Apr-24 23:01N 54°54' E 018°58'510.6
2017-Apr-24 22:31N 54°53' E 019°06'510.6
2017-Apr-24 22:00N 54°50' E 019°15'510.5
2017-Apr-24 21:30N 54°48' E 019°23'510.7
2017-Apr-24 21:00N 54°46' E 019°32'510.8
2017-Apr-24 20:31N 54°44' E 019°40'610.9
2017-Apr-24 20:00N 54°41' E 019°48'6 0.1
2017-Apr-23 03:14N 54°38' E 019°56'2 7.3
2017-Apr-23 03:00N 54°38' E 019°53'3 6.9
2017-Apr-23 02:31N 54°40' E 019°48'3 6.8
2017-Apr-23 02:00N 54°41' E 019°43'3 6.7
2017-Apr-23 01:31N 54°42' E 019°37'3 5.9
2017-Apr-23 01:00N 54°41' E 019°41'3 5.3
2017-Apr-23 00:30N 54°42' E 019°38'1 1.9
2017-Apr-23 00:00N 54°42' E 019°39'2 3.3
2017-Apr-22 23:31N 54°41' E 019°41'4 7.0
2017-Apr-22 23:00N 54°43' E 019°36'0 0.5
2017-Apr-22 22:29N 54°43' E 019°36'3 5.8
2017-Apr-22 21:59N 54°41' E 019°40'2 3.8
2017-Apr-22 21:26N 54°40' E 019°44'3 6.9
2017-Apr-22 21:00N 54°42' E 019°39'3 6.8
2017-Apr-22 20:31N 54°44' E 019°34'2 4.0
2017-Apr-22 20:00N 54°43' E 019°37'2 4.5
2017-Apr-22 19:30N 54°41' E 019°40'0 1.0
2017-Apr-22 19:00N 54°41' E 019°40'3 6.9
2017-Apr-22 18:31N 54°43' E 019°35'1 1.1
2017-Apr-22 18:00N 54°43' E 019°35'2 4.5
2017-Apr-22 17:30N 54°42' E 019°39'2 4.9
2017-Apr-22 17:00N 54°41' E 019°42'1 1.7
2017-Apr-22 16:31N 54°41' E 019°41'1 1.4
2017-Apr-22 16:00N 54°41' E 019°42'2 4.5
2017-Apr-22 15:31N 54°42' E 019°39'1 1.2
2017-Apr-22 15:01N 54°43' E 019°38'2 4.7
2017-Apr-22 14:30N 54°41' E 019°42'5 4.6
2017-Apr-22 13:20N 54°39' E 019°50'0 1.3
2017-Apr-22 13:01N 54°39' E 019°50'0 0.2
2017-Apr-22 12:30N 54°39' E 019°50'0 0.2
2017-Apr-22 12:00N 54°39' E 019°50'0 0.1
2017-Apr-22 11:30N 54°39' E 019°50'0 0.0
2017-Apr-22 11:00N 54°39' E 019°50'0 0.0
2017-Apr-22 10:27N 54°39' E 019°50'0 0.1
2017-Apr-22 09:58N 54°39' E 019°50'0 0.1
2017-Apr-22 09:30N 54°39' E 019°50'0 0.1
2017-Apr-22 09:01N 54°39' E 019°50'0 0.1
2017-Apr-22 08:27N 54°39' E 019°50'0 0.5
2017-Apr-22 08:00N 54°39' E 019°49'2 3.1
2017-Apr-22 07:30N 54°40' E 019°47'510.9
2017-Apr-22 07:00N 54°43' E 019°39'510.7
2017-Apr-22 06:30N 54°45' E 019°31'510.7
2017-Apr-22 06:01N 54°48' E 019°23'510.7
2017-Apr-22 05:31N 54°50' E 019°14'510.9
2017-Apr-22 05:01N 54°52' E 019°06'611.1
2017-Apr-22 04:31N 54°55' E 018°57'611.1
2017-Apr-22 04:01N 54°57' E 018°49'510.9
2017-Apr-22 03:30N 54°60' E 018°40'510.8
2017-Apr-22 03:01N 55°02' E 018°32'510.7
2017-Apr-22 02:30N 55°04' E 018°23'611.1
2017-Apr-22 01:56N 55°06' E 018°13'133 3.7
2017-Apr-20 13:59N 55°58' E 014°36'4 7.3
2017-Apr-20 13:29N 55°55' E 014°37'610.8
2017-Apr-20 12:58N 55°49' E 014°37'510.8
2017-Apr-20 12:29N 55°44' E 014°37'510.7
2017-Apr-20 12:00N 55°39' E 014°37'510.7
2017-Apr-20 11:30N 55°33' E 014°39'611.0
2017-Apr-20 11:00N 55°28' E 014°39'510.5
2017-Apr-20 10:30N 55°23' E 014°36'611.1
2017-Apr-20 10:00N 55°18' E 014°30'511.2
2017-Apr-20 09:30N 55°14' E 014°24'611.0
2017-Apr-20 09:00N 55°11' E 014°16'611.2
2017-Apr-20 08:27N 55°11' E 014°06'511.0
2017-Apr-20 07:59N 55°11' E 013°57'510.7
2017-Apr-20 07:30N 55°11' E 013°48'1610.8
2017-Apr-20 05:59N 55°13' E 013°19'510.7
2017-Apr-20 05:30N 55°14' E 013°10'510.9
2017-Apr-20 05:00N 55°14' E 013°01'510.6
2017-Apr-20 04:30N 55°15' E 012°52'510.8
2017-Apr-20 04:00N 55°17' E 012°43'4 8.9
2017-Apr-20 03:30N 55°21' E 012°39'510.8
2017-Apr-20 03:00N 55°26' E 012°41'510.7
2017-Apr-20 02:30N 55°32' E 012°42'510.1
2017-Apr-20 02:01N 55°37' E 012°42'5 9.7
2017-Apr-20 01:30N 55°41' E 012°41'510.0
2017-Apr-20 01:01N 55°46' E 012°42'5 9.9
2017-Apr-20 00:30N 55°51' E 012°41'510.0
2017-Apr-20 00:01N 55°56' E 012°39'510.1
2017-Apr-19 23:31N 56°01' E 012°40'4 8.7
2017-Apr-19 23:01N 56°05' E 012°35'4 8.4
2017-Apr-19 22:31N 56°08' E 012°30'510.1
2017-Apr-19 22:01N 56°11' E 012°22'  
2017-Apr-17 04:29N 56°59' E 011°43'6 9.7
2017-Apr-17 03:53N 57°05' E 011°39'4 9.7
2017-Apr-17 03:29N 57°09' E 011°37'5 9.8
2017-Apr-17 03:00N 57°13' E 011°34'5 9.9
2017-Apr-17 02:30N 57°18' E 011°31'5 9.6
2017-Apr-17 02:00N 57°22' E 011°28'5 9.1
2017-Apr-17 01:30N 57°26' E 011°24'5 9.3
2017-Apr-17 01:00N 57°30' E 011°19'5 9.9
2017-Apr-17 00:30N 57°33' E 011°12'5 9.7
2017-Apr-17 00:00N 57°37' E 011°06'510.1
2017-Apr-16 23:29N 57°40' E 010°59'510.3
2017-Apr-16 23:00N 57°44' E 010°52'510.4
2017-Apr-16 22:30N 57°47' E 010°44'611.5
2017-Apr-16 22:00N 57°46' E 010°33'611.6
2017-Apr-16 21:28N 57°45' E 010°22'14010.6
2017-Apr-16 08:18N 56°08' E 007°17'310.4
2017-Apr-16 07:59N 56°06' E 007°14'510.4
2017-Apr-16 07:29N 56°01' E 007°10'  

Dump ship's entire track history